sensor_id;sensor_type;location;lat;lon;timestamp;P1;durP1;ratioP1;P2;durP2;ratioP2
40501;SDS011;29631;49.168;9.848;2023-06-10T00:01:51;3.10;;;3.00;;
40501;SDS011;29631;49.168;9.848;2023-06-10T00:04:20;2.88;;;2.78;;
40501;SDS011;29631;49.168;9.848;2023-06-10T00:06:46;3.10;;;3.00;;
40501;SDS011;29631;49.168;9.848;2023-06-10T00:09:14;3.30;;;3.10;;
40501;SDS011;29631;49.168;9.848;2023-06-10T00:11:40;3.60;;;3.40;;
40501;SDS011;29631;49.168;9.848;2023-06-10T00:14:08;3.20;;;3.03;;
40501;SDS011;29631;49.168;9.848;2023-06-10T00:16:34;3.60;;;3.30;;
40501;SDS011;29631;49.168;9.848;2023-06-10T00:19:01;3.45;;;3.22;;
40501;SDS011;29631;49.168;9.848;2023-06-10T00:21:29;3.85;;;3.65;;
40501;SDS011;29631;49.168;9.848;2023-06-10T00:24:05;3.58;;;3.10;;
40501;SDS011;29631;49.168;9.848;2023-06-10T00:26:36;3.35;;;3.15;;
40501;SDS011;29631;49.168;9.848;2023-06-10T00:29:03;3.60;;;3.40;;
40501;SDS011;29631;49.168;9.848;2023-06-10T00:31:30;3.83;;;3.63;;
40501;SDS011;29631;49.168;9.848;2023-06-10T00:33:55;3.50;;;3.30;;
40501;SDS011;29631;49.168;9.848;2023-06-10T00:36:21;3.65;;;3.35;;
40501;SDS011;29631;49.168;9.848;2023-06-10T00:38:47;3.80;;;3.60;;
40501;SDS011;29631;49.168;9.848;2023-06-10T00:41:13;3.15;;;3.05;;
40501;SDS011;29631;49.168;9.848;2023-06-10T00:43:39;3.63;;;3.42;;
40501;SDS011;29631;49.168;9.848;2023-06-10T00:46:04;3.90;;;3.70;;
40501;SDS011;29631;49.168;9.848;2023-06-10T00:48:30;4.22;;;3.55;;
40501;SDS011;29631;49.168;9.848;2023-06-10T00:50:57;3.67;;;3.47;;
40501;SDS011;29631;49.168;9.848;2023-06-10T00:53:24;3.75;;;3.30;;
40501;SDS011;29631;49.168;9.848;2023-06-10T00:55:51;3.80;;;3.60;;
40501;SDS011;29631;49.168;9.848;2023-06-10T00:58:17;3.45;;;3.30;;
40501;SDS011;29631;49.168;9.848;2023-06-10T01:00:44;4.10;;;3.80;;
40501;SDS011;29631;49.168;9.848;2023-06-10T01:03:10;3.45;;;3.25;;
40501;SDS011;29631;49.168;9.848;2023-06-10T01:05:37;3.90;;;3.70;;
40501;SDS011;29631;49.168;9.848;2023-06-10T01:08:09;3.92;;;3.67;;
40501;SDS011;29631;49.168;9.848;2023-06-10T01:10:54;3.20;;;3.08;;
40501;SDS011;29631;49.168;9.848;2023-06-10T01:13:24;4.32;;;4.05;;
40501;SDS011;29631;49.168;9.848;2023-06-10T01:15:54;3.92;;;3.63;;
40501;SDS011;29631;49.168;9.848;2023-06-10T01:18:21;3.00;;;2.90;;
40501;SDS011;29631;49.168;9.848;2023-06-10T01:20:47;3.97;;;3.60;;
40501;SDS011;29631;49.168;9.848;2023-06-10T01:23:13;3.40;;;3.25;;
40501;SDS011;29631;49.168;9.848;2023-06-10T01:25:52;3.55;;;3.35;;
40501;SDS011;29631;49.168;9.848;2023-06-10T01:28:27;3.80;;;3.60;;
40501;SDS011;29631;49.168;9.848;2023-06-10T01:33:52;3.97;;;3.78;;
40501;SDS011;29631;49.168;9.848;2023-06-10T01:36:18;3.70;;;3.50;;
40501;SDS011;29631;49.168;9.848;2023-06-10T01:38:47;4.00;;;3.80;;
40501;SDS011;29631;49.168;9.848;2023-06-10T01:41:16;3.42;;;3.22;;
40501;SDS011;29631;49.168;9.848;2023-06-10T01:43:43;3.80;;;3.60;;
40501;SDS011;29631;49.168;9.848;2023-06-10T01:46:10;3.53;;;3.33;;
40501;SDS011;29631;49.168;9.848;2023-06-10T01:48:37;3.63;;;3.42;;
40501;SDS011;29631;49.168;9.848;2023-06-10T01:51:03;3.83;;;3.63;;
40501;SDS011;29631;49.168;9.848;2023-06-10T01:53:30;22.98;;;5.15;;
40501;SDS011;29631;49.168;9.848;2023-06-10T01:55:56;3.55;;;3.35;;
40501;SDS011;29631;49.168;9.848;2023-06-10T01:58:21;3.97;;;3.72;;
40501;SDS011;29631;49.168;9.848;2023-06-10T02:00:47;3.55;;;3.35;;
40501;SDS011;29631;49.168;9.848;2023-06-10T02:03:13;4.35;;;3.80;;
40501;SDS011;29631;49.168;9.848;2023-06-10T02:05:39;3.75;;;3.45;;
40501;SDS011;29631;49.168;9.848;2023-06-10T02:08:04;3.80;;;3.60;;
40501;SDS011;29631;49.168;9.848;2023-06-10T02:10:30;3.53;;;3.33;;
40501;SDS011;29631;49.168;9.848;2023-06-10T02:12:56;3.58;;;3.28;;
40501;SDS011;29631;49.168;9.848;2023-06-10T02:15:22;3.60;;;3.40;;
40501;SDS011;29631;49.168;9.848;2023-06-10T02:17:48;3.60;;;3.45;;
40501;SDS011;29631;49.168;9.848;2023-06-10T02:20:16;3.58;;;3.40;;
40501;SDS011;29631;49.168;9.848;2023-06-10T02:22:42;3.72;;;3.53;;
40501;SDS011;29631;49.168;9.848;2023-06-10T02:25:08;3.92;;;3.72;;
40501;SDS011;29631;49.168;9.848;2023-06-10T02:27:34;3.95;;;3.75;;
40501;SDS011;29631;49.168;9.848;2023-06-10T02:29:59;3.25;;;3.05;;
40501;SDS011;29631;49.168;9.848;2023-06-10T02:32:25;3.17;;;3.05;;
40501;SDS011;29631;49.168;9.848;2023-06-10T02:34:51;3.63;;;3.42;;
40501;SDS011;29631;49.168;9.848;2023-06-10T02:37:18;3.80;;;3.60;;
40501;SDS011;29631;49.168;9.848;2023-06-10T02:39:44;3.95;;;3.70;;
40501;SDS011;29631;49.168;9.848;2023-06-10T02:42:09;3.72;;;3.53;;
40501;SDS011;29631;49.168;9.848;2023-06-10T02:44:35;3.60;;;3.40;;
40501;SDS011;29631;49.168;9.848;2023-06-10T02:47:01;3.85;;;3.60;;
40501;SDS011;29631;49.168;9.848;2023-06-10T02:49:27;3.70;;;3.50;;
40501;SDS011;29631;49.168;9.848;2023-06-10T02:51:53;3.97;;;3.65;;
40501;SDS011;29631;49.168;9.848;2023-06-10T02:54:19;4.00;;;3.80;;
40501;SDS011;29631;49.168;9.848;2023-06-10T02:56:45;3.65;;;3.45;;
40501;SDS011;29631;49.168;9.848;2023-06-10T02:59:13;4.05;;;3.85;;
40501;SDS011;29631;49.168;9.848;2023-06-10T03:01:39;4.00;;;3.80;;
40501;SDS011;29631;49.168;9.848;2023-06-10T03:04:06;3.80;;;3.60;;
40501;SDS011;29631;49.168;9.848;2023-06-10T03:06:32;4.10;;;3.83;;
40501;SDS011;29631;49.168;9.848;2023-06-10T03:09:01;4.38;;;4.18;;
40501;SDS011;29631;49.168;9.848;2023-06-10T03:11:32;4.20;;;3.90;;
40501;SDS011;29631;49.168;9.848;2023-06-10T03:13:58;4.40;;;4.10;;
40501;SDS011;29631;49.168;9.848;2023-06-10T03:16:24;3.63;;;3.42;;
40501;SDS011;29631;49.168;9.848;2023-06-10T03:18:50;3.90;;;3.70;;
40501;SDS011;29631;49.168;9.848;2023-06-10T03:21:17;3.47;;;3.28;;
40501;SDS011;29631;49.168;9.848;2023-06-10T03:23:43;3.95;;;3.75;;
40501;SDS011;29631;49.168;9.848;2023-06-10T03:26:08;3.97;;;3.78;;
40501;SDS011;29631;49.168;9.848;2023-06-10T03:28:37;3.65;;;3.45;;
40501;SDS011;29631;49.168;9.848;2023-06-10T03:31:03;4.05;;;3.78;;
40501;SDS011;29631;49.168;9.848;2023-06-10T03:33:28;4.00;;;3.70;;
40501;SDS011;29631;49.168;9.848;2023-06-10T03:35:55;3.38;;;3.17;;
40501;SDS011;29631;49.168;9.848;2023-06-10T03:38:20;4.40;;;4.00;;
40501;SDS011;29631;49.168;9.848;2023-06-10T03:40:46;3.70;;;3.50;;
40501;SDS011;29631;49.168;9.848;2023-06-10T03:43:12;4.35;;;4.05;;
40501;SDS011;29631;49.168;9.848;2023-06-10T03:45:38;4.07;;;3.78;;
40501;SDS011;29631;49.168;9.848;2023-06-10T03:48:04;3.88;;;3.63;;
40501;SDS011;29631;49.168;9.848;2023-06-10T03:50:31;3.80;;;3.60;;
40501;SDS011;29631;49.168;9.848;2023-06-10T03:52:57;4.50;;;4.20;;
40501;SDS011;29631;49.168;9.848;2023-06-10T03:55:23;4.72;;;4.18;;
40501;SDS011;29631;49.168;9.848;2023-06-10T03:57:49;4.38;;;4.18;;
40501;SDS011;29631;49.168;9.848;2023-06-10T04:00:15;3.85;;;3.65;;
40501;SDS011;29631;49.168;9.848;2023-06-10T04:02:42;4.03;;;3.78;;
40501;SDS011;29631;49.168;9.848;2023-06-10T04:05:12;4.10;;;3.90;;
40501;SDS011;29631;49.168;9.848;2023-06-10T04:07:39;4.35;;;4.00;;
40501;SDS011;29631;49.168;9.848;2023-06-10T04:10:07;4.43;;;4.13;;
40501;SDS011;29631;49.168;9.848;2023-06-10T04:12:34;4.43;;;4.22;;
40501;SDS011;29631;49.168;9.848;2023-06-10T04:15:01;4.47;;;4.22;;
40501;SDS011;29631;49.168;9.848;2023-06-10T04:17:28;4.78;;;4.47;;
40501;SDS011;29631;49.168;9.848;2023-06-10T04:19:54;4.30;;;4.00;;
40501;SDS011;29631;49.168;9.848;2023-06-10T04:22:20;4.45;;;4.15;;
40501;SDS011;29631;49.168;9.848;2023-06-10T04:24:47;4.05;;;3.80;;
40501;SDS011;29631;49.168;9.848;2023-06-10T04:27:13;4.20;;;4.00;;
40501;SDS011;29631;49.168;9.848;2023-06-10T04:29:39;4.47;;;4.07;;
40501;SDS011;29631;49.168;9.848;2023-06-10T04:32:05;4.53;;;4.30;;
40501;SDS011;29631;49.168;9.848;2023-06-10T04:34:32;4.40;;;4.10;;
40501;SDS011;29631;49.168;9.848;2023-06-10T04:36:59;4.82;;;4.50;;
40501;SDS011;29631;49.168;9.848;2023-06-10T04:39:25;4.25;;;4.05;;
40501;SDS011;29631;49.168;9.848;2023-06-10T04:41:51;4.43;;;4.20;;
40501;SDS011;29631;49.168;9.848;2023-06-10T04:44:17;4.88;;;4.57;;
40501;SDS011;29631;49.168;9.848;2023-06-10T04:46:43;4.72;;;4.43;;
40501;SDS011;29631;49.168;9.848;2023-06-10T04:49:10;4.32;;;4.10;;
40501;SDS011;29631;49.168;9.848;2023-06-10T04:51:38;4.40;;;4.18;;
40501;SDS011;29631;49.168;9.848;2023-06-10T04:54:04;4.40;;;4.10;;
40501;SDS011;29631;49.168;9.848;2023-06-10T04:56:30;4.57;;;4.28;;
40501;SDS011;29631;49.168;9.848;2023-06-10T04:58:56;4.93;;;4.53;;
40501;SDS011;29631;49.168;9.848;2023-06-10T05:01:22;4.88;;;4.57;;
40501;SDS011;29631;49.168;9.848;2023-06-10T05:03:48;4.78;;;4.47;;
40501;SDS011;29631;49.168;9.848;2023-06-10T05:06:14;4.75;;;4.45;;
40501;SDS011;29631;49.168;9.848;2023-06-10T05:08:40;4.57;;;4.38;;
40501;SDS011;29631;49.168;9.848;2023-06-10T05:11:05;4.80;;;4.50;;
40501;SDS011;29631;49.168;9.848;2023-06-10T05:13:31;4.75;;;4.35;;
40501;SDS011;29631;49.168;9.848;2023-06-10T05:15:57;5.40;;;4.63;;
40501;SDS011;29631;49.168;9.848;2023-06-10T05:18:23;5.25;;;4.75;;
40501;SDS011;29631;49.168;9.848;2023-06-10T05:20:49;4.95;;;4.50;;
40501;SDS011;29631;49.168;9.848;2023-06-10T05:23:15;5.85;;;4.53;;
40501;SDS011;29631;49.168;9.848;2023-06-10T05:25:41;4.90;;;4.60;;
40501;SDS011;29631;49.168;9.848;2023-06-10T05:28:07;4.70;;;4.40;;
40501;SDS011;29631;49.168;9.848;2023-06-10T05:30:35;4.55;;;4.28;;
40501;SDS011;29631;49.168;9.848;2023-06-10T05:33:01;5.13;;;4.82;;
40501;SDS011;29631;49.168;9.848;2023-06-10T05:35:28;5.47;;;4.95;;
40501;SDS011;29631;49.168;9.848;2023-06-10T05:37:53;5.38;;;5.07;;
40501;SDS011;29631;49.168;9.848;2023-06-10T05:40:19;4.97;;;4.57;;
40501;SDS011;29631;49.168;9.848;2023-06-10T05:42:45;4.70;;;4.40;;
40501;SDS011;29631;49.168;9.848;2023-06-10T05:45:11;5.07;;;4.68;;
40501;SDS011;29631;49.168;9.848;2023-06-10T05:47:37;4.43;;;4.13;;
40501;SDS011;29631;49.168;9.848;2023-06-10T05:50:02;5.38;;;4.97;;
40501;SDS011;29631;49.168;9.848;2023-06-10T05:52:32;5.13;;;4.82;;
40501;SDS011;29631;49.168;9.848;2023-06-10T05:54:59;5.55;;;5.18;;
40501;SDS011;29631;49.168;9.848;2023-06-10T05:57:25;5.18;;;4.88;;
40501;SDS011;29631;49.168;9.848;2023-06-10T05:59:51;5.35;;;5.00;;
40501;SDS011;29631;49.168;9.848;2023-06-10T06:02:17;4.60;;;4.30;;
40501;SDS011;29631;49.168;9.848;2023-06-10T06:04:42;4.93;;;4.63;;
40501;SDS011;29631;49.168;9.848;2023-06-10T06:07:08;4.88;;;4.57;;
40501;SDS011;29631;49.168;9.848;2023-06-10T06:09:34;4.63;;;4.35;;
40501;SDS011;29631;49.168;9.848;2023-06-10T06:12:00;5.00;;;4.70;;
40501;SDS011;29631;49.168;9.848;2023-06-10T06:14:26;5.55;;;4.97;;
40501;SDS011;29631;49.168;9.848;2023-06-10T06:16:51;5.13;;;4.75;;
40501;SDS011;29631;49.168;9.848;2023-06-10T06:19:17;5.32;;;4.95;;
40501;SDS011;29631;49.168;9.848;2023-06-10T06:21:43;5.40;;;5.00;;
40501;SDS011;29631;49.168;9.848;2023-06-10T06:24:08;4.90;;;4.60;;
40501;SDS011;29631;49.168;9.848;2023-06-10T06:26:34;5.13;;;4.82;;
40501;SDS011;29631;49.168;9.848;2023-06-10T06:29:00;4.57;;;4.30;;
40501;SDS011;29631;49.168;9.848;2023-06-10T06:31:26;5.05;;;4.55;;
40501;SDS011;29631;49.168;9.848;2023-06-10T06:33:51;4.32;;;4.13;;
40501;SDS011;29631;49.168;9.848;2023-06-10T06:36:17;4.47;;;4.18;;
40501;SDS011;29631;49.168;9.848;2023-06-10T06:38:43;5.35;;;4.95;;
40501;SDS011;29631;49.168;9.848;2023-06-10T06:41:08;4.80;;;4.50;;
40501;SDS011;29631;49.168;9.848;2023-06-10T06:43:34;4.88;;;4.57;;
40501;SDS011;29631;49.168;9.848;2023-06-10T06:46:00;4.43;;;4.18;;
40501;SDS011;29631;49.168;9.848;2023-06-10T06:48:26;4.75;;;4.45;;
40501;SDS011;29631;49.168;9.848;2023-06-10T06:50:51;5.13;;;4.82;;
40501;SDS011;29631;49.168;9.848;2023-06-10T06:53:17;4.75;;;4.45;;
40501;SDS011;29631;49.168;9.848;2023-06-10T06:55:43;4.80;;;4.50;;
40501;SDS011;29631;49.168;9.848;2023-06-10T06:58:09;4.38;;;4.18;;
40501;SDS011;29631;49.168;9.848;2023-06-10T07:00:35;4.90;;;4.50;;
40501;SDS011;29631;49.168;9.848;2023-06-10T07:03:00;4.45;;;4.25;;
40501;SDS011;29631;49.168;9.848;2023-06-10T07:05:26;4.95;;;4.55;;
40501;SDS011;29631;49.168;9.848;2023-06-10T07:07:52;4.40;;;4.10;;
40501;SDS011;29631;49.168;9.848;2023-06-10T07:10:21;4.47;;;4.20;;
40501;SDS011;29631;49.168;9.848;2023-06-10T07:12:50;4.53;;;4.22;;
40501;SDS011;29631;49.168;9.848;2023-06-10T07:15:16;4.63;;;4.32;;
40501;SDS011;29631;49.168;9.848;2023-06-10T07:17:42;4.82;;;4.55;;
40501;SDS011;29631;49.168;9.848;2023-06-10T07:20:08;4.50;;;4.20;;
40501;SDS011;29631;49.168;9.848;2023-06-10T07:22:35;4.97;;;4.68;;
40501;SDS011;29631;49.168;9.848;2023-06-10T07:25:01;4.18;;;3.97;;
40501;SDS011;29631;49.168;9.848;2023-06-10T07:27:27;4.57;;;4.20;;
40501;SDS011;29631;49.168;9.848;2023-06-10T07:29:52;5.00;;;4.70;;
40501;SDS011;29631;49.168;9.848;2023-06-10T07:32:18;4.70;;;4.40;;
40501;SDS011;29631;49.168;9.848;2023-06-10T07:34:47;4.82;;;4.43;;
40501;SDS011;29631;49.168;9.848;2023-06-10T07:37:12;4.43;;;4.13;;
40501;SDS011;29631;49.168;9.848;2023-06-10T07:39:38;5.30;;;5.00;;
40501;SDS011;29631;49.168;9.848;2023-06-10T07:42:04;4.57;;;4.18;;
40501;SDS011;29631;49.168;9.848;2023-06-10T07:44:31;3.92;;;3.72;;
40501;SDS011;29631;49.168;9.848;2023-06-10T07:46:56;4.47;;;4.18;;
40501;SDS011;29631;49.168;9.848;2023-06-10T07:49:23;4.60;;;4.30;;
40501;SDS011;29631;49.168;9.848;2023-06-10T07:51:49;4.07;;;3.88;;
40501;SDS011;29631;49.168;9.848;2023-06-10T07:54:16;4.20;;;3.90;;
40501;SDS011;29631;49.168;9.848;2023-06-10T07:56:41;4.45;;;4.05;;
40501;SDS011;29631;49.168;9.848;2023-06-10T07:59:07;4.50;;;4.30;;
40501;SDS011;29631;49.168;9.848;2023-06-10T08:01:33;4.40;;;4.10;;
40501;SDS011;29631;49.168;9.848;2023-06-10T08:04:00;4.75;;;4.40;;
40501;SDS011;29631;49.168;9.848;2023-06-10T08:06:26;5.03;;;4.35;;
40501;SDS011;29631;49.168;9.848;2023-06-10T08:08:52;4.57;;;4.25;;
40501;SDS011;29631;49.168;9.848;2023-06-10T08:11:18;6.75;;;4.50;;
40501;SDS011;29631;49.168;9.848;2023-06-10T08:13:44;4.88;;;4.22;;
40501;SDS011;29631;49.168;9.848;2023-06-10T08:16:09;4.40;;;4.10;;
40501;SDS011;29631;49.168;9.848;2023-06-10T08:18:35;3.92;;;3.63;;
40501;SDS011;29631;49.168;9.848;2023-06-10T08:21:01;4.60;;;4.30;;
40501;SDS011;29631;49.168;9.848;2023-06-10T08:23:26;4.63;;;4.32;;
40501;SDS011;29631;49.168;9.848;2023-06-10T08:25:52;11.95;;;3.92;;
40501;SDS011;29631;49.168;9.848;2023-06-10T08:28:18;4.50;;;4.18;;
40501;SDS011;29631;49.168;9.848;2023-06-10T08:30:44;4.22;;;4.03;;
40501;SDS011;29631;49.168;9.848;2023-06-10T08:33:10;4.47;;;4.25;;
40501;SDS011;29631;49.168;9.848;2023-06-10T08:35:36;4.15;;;3.95;;
40501;SDS011;29631;49.168;9.848;2023-06-10T08:38:01;3.72;;;3.53;;
40501;SDS011;29631;49.168;9.848;2023-06-10T08:40:27;3.78;;;3.58;;
40501;SDS011;29631;49.168;9.848;2023-06-10T08:42:54;4.45;;;4.15;;
40501;SDS011;29631;49.168;9.848;2023-06-10T08:45:31;3.67;;;3.40;;
40501;SDS011;29631;49.168;9.848;2023-06-10T08:48:00;3.92;;;3.70;;
40501;SDS011;29631;49.168;9.848;2023-06-10T08:50:35;3.60;;;3.40;;
40501;SDS011;29631;49.168;9.848;2023-06-10T08:53:03;3.78;;;3.47;;
40501;SDS011;29631;49.168;9.848;2023-06-10T08:55:43;3.85;;;3.50;;
40501;SDS011;29631;49.168;9.848;2023-06-10T08:58:16;3.72;;;3.53;;
40501;SDS011;29631;49.168;9.848;2023-06-10T09:00:42;3.80;;;3.60;;
40501;SDS011;29631;49.168;9.848;2023-06-10T09:03:08;3.22;;;3.08;;
40501;SDS011;29631;49.168;9.848;2023-06-10T09:05:34;3.42;;;3.33;;
40501;SDS011;29631;49.168;9.848;2023-06-10T09:08:03;4.93;;;3.60;;
40501;SDS011;29631;49.168;9.848;2023-06-10T09:10:32;3.83;;;3.60;;
40501;SDS011;29631;49.168;9.848;2023-06-10T09:12:58;3.63;;;3.42;;
40501;SDS011;29631;49.168;9.848;2023-06-10T09:15:24;3.50;;;3.30;;
40501;SDS011;29631;49.168;9.848;2023-06-10T09:17:49;4.20;;;3.70;;
40501;SDS011;29631;49.168;9.848;2023-06-10T09:20:16;3.22;;;3.13;;
40501;SDS011;29631;49.168;9.848;2023-06-10T09:22:43;3.33;;;3.20;;
40501;SDS011;29631;49.168;9.848;2023-06-10T09:25:10;3.30;;;3.10;;
40501;SDS011;29631;49.168;9.848;2023-06-10T09:27:44;3.60;;;3.40;;
40501;SDS011;29631;49.168;9.848;2023-06-10T09:30:32;3.03;;;2.92;;
40501;SDS011;29631;49.168;9.848;2023-06-10T09:33:02;4.00;;;3.10;;
40501;SDS011;29631;49.168;9.848;2023-06-10T09:35:37;3.67;;;3.40;;
40501;SDS011;29631;49.168;9.848;2023-06-10T09:38:12;3.20;;;3.10;;
40501;SDS011;29631;49.168;9.848;2023-06-10T09:40:53;3.30;;;3.15;;
40501;SDS011;29631;49.168;9.848;2023-06-10T09:43:20;2.80;;;2.70;;
40501;SDS011;29631;49.168;9.848;2023-06-10T09:45:49;3.30;;;3.10;;
40501;SDS011;29631;49.168;9.848;2023-06-10T09:48:18;3.10;;;2.90;;
40501;SDS011;29631;49.168;9.848;2023-06-10T09:50:44;3.00;;;2.90;;
40501;SDS011;29631;49.168;9.848;2023-06-10T09:53:11;3.85;;;3.20;;
40501;SDS011;29631;49.168;9.848;2023-06-10T09:55:37;3.20;;;3.10;;
40501;SDS011;29631;49.168;9.848;2023-06-10T09:58:04;2.90;;;2.80;;
40501;SDS011;29631;49.168;9.848;2023-06-10T10:00:31;3.45;;;3.20;;
40501;SDS011;29631;49.168;9.848;2023-06-10T10:02:58;2.90;;;2.80;;
40501;SDS011;29631;49.168;9.848;2023-06-10T10:05:25;3.00;;;2.90;;
40501;SDS011;29631;49.168;9.848;2023-06-10T10:07:53;2.90;;;2.80;;
40501;SDS011;29631;49.168;9.848;2023-06-10T10:10:19;2.75;;;2.65;;
40501;SDS011;29631;49.168;9.848;2023-06-10T10:12:46;2.60;;;2.50;;
40501;SDS011;29631;49.168;9.848;2023-06-10T10:15:13;2.60;;;2.50;;
40501;SDS011;29631;49.168;9.848;2023-06-10T10:20:22;3.10;;;2.78;;
40501;SDS011;29631;49.168;9.848;2023-06-10T10:22:55;3.15;;;2.97;;
40501;SDS011;29631;49.168;9.848;2023-06-10T10:25:23;3.03;;;2.92;;
40501;SDS011;29631;49.168;9.848;2023-06-10T10:28:06;3.08;;;2.88;;
40501;SDS011;29631;49.168;9.848;2023-06-10T10:30:39;3.47;;;2.70;;
40501;SDS011;29631;49.168;9.848;2023-06-10T10:33:26;2.95;;;2.80;;
40501;SDS011;29631;49.168;9.848;2023-06-10T10:36:01;2.60;;;2.40;;
40501;SDS011;29631;49.168;9.848;2023-06-10T10:38:27;2.95;;;2.75;;
40501;SDS011;29631;49.168;9.848;2023-06-10T10:40:53;2.55;;;2.45;;
40501;SDS011;29631;49.168;9.848;2023-06-10T10:43:24;2.80;;;2.70;;
40501;SDS011;29631;49.168;9.848;2023-06-10T10:45:58;2.75;;;2.65;;
40501;SDS011;29631;49.168;9.848;2023-06-10T10:48:25;2.70;;;2.60;;
40501;SDS011;29631;49.168;9.848;2023-06-10T10:50:58;2.80;;;2.70;;
40501;SDS011;29631;49.168;9.848;2023-06-10T10:53:24;2.65;;;2.55;;
40501;SDS011;29631;49.168;9.848;2023-06-10T10:56:04;2.47;;;2.38;;
40501;SDS011;29631;49.168;9.848;2023-06-10T10:58:31;2.50;;;2.40;;
40501;SDS011;29631;49.168;9.848;2023-06-10T11:00:57;2.58;;;2.45;;
40501;SDS011;29631;49.168;9.848;2023-06-10T11:03:24;2.45;;;2.35;;
40501;SDS011;29631;49.168;9.848;2023-06-10T11:05:57;2.25;;;2.15;;
40501;SDS011;29631;49.168;9.848;2023-06-10T11:08:45;2.47;;;2.45;;
40501;SDS011;29631;49.168;9.848;2023-06-10T11:11:23;2.10;;;2.10;;
40501;SDS011;29631;49.168;9.848;2023-06-10T11:16:58;2.35;;;2.28;;
40501;SDS011;29631;49.168;9.848;2023-06-10T11:19:34;2.80;;;2.70;;
40501;SDS011;29631;49.168;9.848;2023-06-10T11:22:05;2.78;;;2.60;;
40501;SDS011;29631;49.168;9.848;2023-06-10T11:24:32;2.72;;;2.63;;
40501;SDS011;29631;49.168;9.848;2023-06-10T11:27:17;2.50;;;2.40;;
40501;SDS011;29631;49.168;9.848;2023-06-10T11:29:57;2.80;;;2.70;;
40501;SDS011;29631;49.168;9.848;2023-06-10T11:32:45;2.85;;;2.65;;
40501;SDS011;29631;49.168;9.848;2023-06-10T11:35:18;2.70;;;2.60;;
40501;SDS011;29631;49.168;9.848;2023-06-10T11:37:46;2.75;;;2.55;;
40501;SDS011;29631;49.168;9.848;2023-06-10T11:40:13;2.80;;;2.60;;
40501;SDS011;29631;49.168;9.848;2023-06-10T11:42:40;2.58;;;2.47;;
40501;SDS011;29631;49.168;9.848;2023-06-10T11:45:07;2.47;;;2.38;;
40501;SDS011;29631;49.168;9.848;2023-06-10T11:47:33;2.30;;;2.10;;
40501;SDS011;29631;49.168;9.848;2023-06-10T11:49:59;2.70;;;2.50;;
40501;SDS011;29631;49.168;9.848;2023-06-10T11:52:28;2.55;;;2.45;;
40501;SDS011;29631;49.168;9.848;2023-06-10T11:54:58;2.42;;;2.33;;
40501;SDS011;29631;49.168;9.848;2023-06-10T11:57:24;2.50;;;2.40;;
40501;SDS011;29631;49.168;9.848;2023-06-10T11:59:50;2.65;;;2.55;;
40501;SDS011;29631;49.168;9.848;2023-06-10T12:02:16;2.58;;;2.47;;
40501;SDS011;29631;49.168;9.848;2023-06-10T12:04:44;2.65;;;2.55;;
40501;SDS011;29631;49.168;9.848;2023-06-10T12:07:16;2.78;;;2.65;;
40501;SDS011;29631;49.168;9.848;2023-06-10T12:09:46;2.58;;;2.47;;
40501;SDS011;29631;49.168;9.848;2023-06-10T12:12:12;2.60;;;2.40;;
40501;SDS011;29631;49.168;9.848;2023-06-10T12:14:54;2.67;;;2.47;;
40501;SDS011;29631;49.168;9.848;2023-06-10T12:17:35;2.60;;;2.50;;
40501;SDS011;29631;49.168;9.848;2023-06-10T12:20:03;1.92;;;1.92;;
40501;SDS011;29631;49.168;9.848;2023-06-10T12:22:43;2.55;;;2.45;;
40501;SDS011;29631;49.168;9.848;2023-06-10T12:25:10;2.65;;;2.55;;
40501;SDS011;29631;49.168;9.848;2023-06-10T12:27:37;2.30;;;2.20;;
40501;SDS011;29631;49.168;9.848;2023-06-10T12:30:04;2.13;;;2.03;;
40501;SDS011;29631;49.168;9.848;2023-06-10T12:32:43;2.13;;;2.08;;
40501;SDS011;29631;49.168;9.848;2023-06-10T12:35:11;2.40;;;2.30;;
40501;SDS011;29631;49.168;9.848;2023-06-10T12:37:59;2.55;;;2.20;;
40501;SDS011;29631;49.168;9.848;2023-06-10T12:40:36;2.20;;;2.10;;
40501;SDS011;29631;49.168;9.848;2023-06-10T12:43:06;2.35;;;2.28;;
40501;SDS011;29631;49.168;9.848;2023-06-10T12:45:32;2.17;;;2.17;;
40501;SDS011;29631;49.168;9.848;2023-06-10T12:48:09;2.20;;;2.10;;
40501;SDS011;29631;49.168;9.848;2023-06-10T12:50:40;2.30;;;2.20;;
40501;SDS011;29631;49.168;9.848;2023-06-10T12:53:07;2.28;;;2.20;;
40501;SDS011;29631;49.168;9.848;2023-06-10T12:55:34;2.10;;;2.00;;
40501;SDS011;29631;49.168;9.848;2023-06-10T12:58:00;2.40;;;2.30;;
40501;SDS011;29631;49.168;9.848;2023-06-10T13:00:26;2.17;;;2.10;;
40501;SDS011;29631;49.168;9.848;2023-06-10T13:02:55;2.08;;;2.00;;
40501;SDS011;29631;49.168;9.848;2023-06-10T13:05:28;2.20;;;2.10;;
40501;SDS011;29631;49.168;9.848;2023-06-10T13:07:54;2.00;;;2.00;;
40501;SDS011;29631;49.168;9.848;2023-06-10T13:10:20;2.30;;;2.20;;
40501;SDS011;29631;49.168;9.848;2023-06-10T13:12:47;2.30;;;2.20;;
40501;SDS011;29631;49.168;9.848;2023-06-10T13:15:13;3.20;;;2.05;;
40501;SDS011;29631;49.168;9.848;2023-06-10T13:17:39;2.50;;;2.30;;
40501;SDS011;29631;49.168;9.848;2023-06-10T13:20:06;2.92;;;2.30;;
40501;SDS011;29631;49.168;9.848;2023-06-10T13:22:33;2.10;;;2.10;;
40501;SDS011;29631;49.168;9.848;2023-06-10T13:25:04;1.98;;;1.98;;
40501;SDS011;29631;49.168;9.848;2023-06-10T13:27:34;2.20;;;2.10;;
40501;SDS011;29631;49.168;9.848;2023-06-10T13:30:03;2.10;;;2.10;;
40501;SDS011;29631;49.168;9.848;2023-06-10T13:32:31;2.20;;;2.10;;
40501;SDS011;29631;49.168;9.848;2023-06-10T13:34:57;2.20;;;2.10;;
40501;SDS011;29631;49.168;9.848;2023-06-10T13:37:22;2.30;;;2.10;;
40501;SDS011;29631;49.168;9.848;2023-06-10T13:39:48;2.33;;;2.22;;
40501;SDS011;29631;49.168;9.848;2023-06-10T13:42:19;2.33;;;2.10;;
40501;SDS011;29631;49.168;9.848;2023-06-10T13:44:45;2.03;;;2.03;;
40501;SDS011;29631;49.168;9.848;2023-06-10T13:47:16;2.28;;;2.10;;
40501;SDS011;29631;49.168;9.848;2023-06-10T13:49:42;2.40;;;2.30;;
40501;SDS011;29631;49.168;9.848;2023-06-10T13:52:08;2.08;;;1.98;;
40501;SDS011;29631;49.168;9.848;2023-06-10T13:54:34;2.40;;;2.30;;
40501;SDS011;29631;49.168;9.848;2023-06-10T13:57:03;2.15;;;2.05;;
40501;SDS011;29631;49.168;9.848;2023-06-10T13:59:29;2.20;;;2.20;;
40501;SDS011;29631;49.168;9.848;2023-06-10T14:01:55;2.47;;;2.38;;
40501;SDS011;29631;49.168;9.848;2023-06-10T14:04:21;2.38;;;2.28;;
40501;SDS011;29631;49.168;9.848;2023-06-10T14:06:47;2.60;;;2.50;;
40501;SDS011;29631;49.168;9.848;2023-06-10T14:09:13;2.60;;;2.50;;
40501;SDS011;29631;49.168;9.848;2023-06-10T14:11:39;2.60;;;2.40;;
40501;SDS011;29631;49.168;9.848;2023-06-10T14:14:05;3.15;;;2.63;;
40501;SDS011;29631;49.168;9.848;2023-06-10T14:16:31;2.50;;;2.40;;
40501;SDS011;29631;49.168;9.848;2023-06-10T14:18:57;2.58;;;2.47;;
40501;SDS011;29631;49.168;9.848;2023-06-10T14:21:23;2.50;;;2.40;;
40501;SDS011;29631;49.168;9.848;2023-06-10T14:23:48;2.85;;;2.65;;
40501;SDS011;29631;49.168;9.848;2023-06-10T14:26:16;2.63;;;2.42;;
40501;SDS011;29631;49.168;9.848;2023-06-10T14:28:42;2.75;;;2.65;;
40501;SDS011;29631;49.168;9.848;2023-06-10T14:31:08;2.40;;;2.30;;
40501;SDS011;29631;49.168;9.848;2023-06-10T14:33:33;2.50;;;2.30;;
40501;SDS011;29631;49.168;9.848;2023-06-10T14:35:59;2.50;;;2.40;;
40501;SDS011;29631;49.168;9.848;2023-06-10T14:38:25;2.42;;;2.33;;
40501;SDS011;29631;49.168;9.848;2023-06-10T14:40:51;2.00;;;2.00;;
40501;SDS011;29631;49.168;9.848;2023-06-10T14:43:17;2.08;;;2.08;;
40501;SDS011;29631;49.168;9.848;2023-06-10T14:45:43;2.40;;;2.30;;
40501;SDS011;29631;49.168;9.848;2023-06-10T14:48:10;4.75;;;2.00;;
40501;SDS011;29631;49.168;9.848;2023-06-10T14:50:36;3.55;;;3.05;;
40501;SDS011;29631;49.168;9.848;2023-06-10T14:53:02;2.63;;;2.53;;
40501;SDS011;29631;49.168;9.848;2023-06-10T14:55:28;6.10;;;5.70;;
40501;SDS011;29631;49.168;9.848;2023-06-10T14:57:54;15.05;;;13.90;;
40501;SDS011;29631;49.168;9.848;2023-06-10T15:00:22;8.45;;;7.88;;